sensor_id;sensor_type;location;lat;lon;timestamp;P1;durP1;ratioP1;P2;durP2;ratioP2
15482;SDS011;7843;50.330;7.312;2023-05-07T00:00:20;2.13;;;1.20;;
15482;SDS011;7843;50.330;7.312;2023-05-07T00:02:47;1.20;;;0.90;;
15482;SDS011;7843;50.330;7.312;2023-05-07T00:05:14;1.80;;;0.93;;
15482;SDS011;7843;50.330;7.312;2023-05-07T00:07:41;2.88;;;1.08;;
15482;SDS011;7843;50.330;7.312;2023-05-07T00:10:08;1.02;;;0.85;;
15482;SDS011;7843;50.330;7.312;2023-05-07T00:12:35;1.30;;;0.80;;
15482;SDS011;7843;50.330;7.312;2023-05-07T00:15:02;1.30;;;0.80;;
15482;SDS011;7843;50.330;7.312;2023-05-07T00:17:29;1.48;;;0.88;;
15482;SDS011;7843;50.330;7.312;2023-05-07T00:19:56;2.17;;;1.00;;
15482;SDS011;7843;50.330;7.312;2023-05-07T00:22:23;3.90;;;1.52;;
15482;SDS011;7843;50.330;7.312;2023-05-07T00:24:50;1.23;;;0.88;;
15482;SDS011;7843;50.330;7.312;2023-05-07T00:27:16;5.45;;;1.00;;
15482;SDS011;7843;50.330;7.312;2023-05-07T00:29:43;1.15;;;1.00;;
15482;SDS011;7843;50.330;7.312;2023-05-07T00:32:09;1.30;;;1.00;;
15482;SDS011;7843;50.330;7.312;2023-05-07T00:34:36;1.30;;;1.00;;
15482;SDS011;7843;50.330;7.312;2023-05-07T00:37:03;1.42;;;1.02;;
15482;SDS011;7843;50.330;7.312;2023-05-07T00:39:31;2.60;;;1.10;;
15482;SDS011;7843;50.330;7.312;2023-05-07T00:41:58;3.03;;;1.10;;
15482;SDS011;7843;50.330;7.312;2023-05-07T00:44:26;3.10;;;1.00;;
15482;SDS011;7843;50.330;7.312;2023-05-07T00:46:54;2.87;;;1.20;;
15482;SDS011;7843;50.330;7.312;2023-05-07T00:49:24;1.10;;;0.85;;
15482;SDS011;7843;50.330;7.312;2023-05-07T00:52:01;1.27;;;1.00;;
15482;SDS011;7843;50.330;7.312;2023-05-07T00:54:28;3.33;;;1.15;;
15482;SDS011;7843;50.330;7.312;2023-05-07T00:56:55;1.00;;;0.77;;
15482;SDS011;7843;50.330;7.312;2023-05-07T00:59:22;1.00;;;0.90;;
15482;SDS011;7843;50.330;7.312;2023-05-07T01:01:49;0.98;;;0.80;;
15482;SDS011;7843;50.330;7.312;2023-05-07T01:04:16;2.55;;;0.80;;
15482;SDS011;7843;50.330;7.312;2023-05-07T01:06:43;1.52;;;0.73;;
15482;SDS011;7843;50.330;7.312;2023-05-07T01:09:11;1.40;;;0.90;;
15482;SDS011;7843;50.330;7.312;2023-05-07T01:11:39;1.38;;;0.80;;
15482;SDS011;7843;50.330;7.312;2023-05-07T01:14:06;0.90;;;0.80;;
15482;SDS011;7843;50.330;7.312;2023-05-07T01:16:34;2.13;;;1.15;;
15482;SDS011;7843;50.330;7.312;2023-05-07T01:19:02;1.75;;;1.10;;
15482;SDS011;7843;50.330;7.312;2023-05-07T01:21:30;1.67;;;1.10;;
15482;SDS011;7843;50.330;7.312;2023-05-07T01:23:59;1.42;;;1.00;;
15482;SDS011;7843;50.330;7.312;2023-05-07T01:26:26;1.50;;;1.00;;
15482;SDS011;7843;50.330;7.312;2023-05-07T01:28:52;2.70;;;1.02;;
15482;SDS011;7843;50.330;7.312;2023-05-07T01:31:19;2.30;;;1.25;;
15482;SDS011;7843;50.330;7.312;2023-05-07T01:33:46;1.27;;;0.93;;
15482;SDS011;7843;50.330;7.312;2023-05-07T01:36:16;1.38;;;0.88;;
15482;SDS011;7843;50.330;7.312;2023-05-07T01:38:44;1.90;;;0.90;;
15482;SDS011;7843;50.330;7.312;2023-05-07T01:41:12;1.50;;;0.70;;
15482;SDS011;7843;50.330;7.312;2023-05-07T01:43:40;0.90;;;0.75;;
15482;SDS011;7843;50.330;7.312;2023-05-07T01:46:08;0.98;;;0.88;;
15482;SDS011;7843;50.330;7.312;2023-05-07T01:48:36;3.35;;;1.15;;
15482;SDS011;7843;50.330;7.312;2023-05-07T01:51:03;2.92;;;1.23;;
15482;SDS011;7843;50.330;7.312;2023-05-07T01:53:39;1.02;;;0.93;;
15482;SDS011;7843;50.330;7.312;2023-05-07T01:56:06;3.75;;;1.05;;
15482;SDS011;7843;50.330;7.312;2023-05-07T01:58:33;0.77;;;0.70;;
15482;SDS011;7843;50.330;7.312;2023-05-07T02:01:00;1.98;;;0.90;;
15482;SDS011;7843;50.330;7.312;2023-05-07T02:03:27;1.73;;;1.00;;
15482;SDS011;7843;50.330;7.312;2023-05-07T02:05:53;1.27;;;0.80;;
15482;SDS011;7843;50.330;7.312;2023-05-07T02:08:20;4.60;;;1.13;;
15482;SDS011;7843;50.330;7.312;2023-05-07T02:10:47;0.70;;;0.70;;
15482;SDS011;7843;50.330;7.312;2023-05-07T02:13:13;1.98;;;1.10;;
15482;SDS011;7843;50.330;7.312;2023-05-07T02:15:40;3.50;;;0.80;;
15482;SDS011;7843;50.330;7.312;2023-05-07T02:18:07;2.03;;;0.85;;
15482;SDS011;7843;50.330;7.312;2023-05-07T02:20:35;1.70;;;1.17;;
15482;SDS011;7843;50.330;7.312;2023-05-07T02:23:01;2.28;;;1.08;;
15482;SDS011;7843;50.330;7.312;2023-05-07T02:25:28;1.67;;;1.00;;
15482;SDS011;7843;50.330;7.312;2023-05-07T02:27:56;2.40;;;0.90;;
15482;SDS011;7843;50.330;7.312;2023-05-07T02:30:22;1.45;;;0.85;;
15482;SDS011;7843;50.330;7.312;2023-05-07T02:32:49;1.33;;;1.00;;
15482;SDS011;7843;50.330;7.312;2023-05-07T02:35:16;1.80;;;1.10;;
15482;SDS011;7843;50.330;7.312;2023-05-07T02:37:43;3.60;;;1.17;;
15482;SDS011;7843;50.330;7.312;2023-05-07T02:40:10;1.85;;;1.13;;
15482;SDS011;7843;50.330;7.312;2023-05-07T02:42:37;1.60;;;1.10;;
15482;SDS011;7843;50.330;7.312;2023-05-07T02:45:04;3.60;;;1.83;;
15482;SDS011;7843;50.330;7.312;2023-05-07T02:47:31;1.60;;;1.23;;
15482;SDS011;7843;50.330;7.312;2023-05-07T02:49:58;2.17;;;1.35;;
15482;SDS011;7843;50.330;7.312;2023-05-07T02:52:25;2.90;;;1.30;;
15482;SDS011;7843;50.330;7.312;2023-05-07T02:54:51;1.98;;;1.30;;
15482;SDS011;7843;50.330;7.312;2023-05-07T02:57:18;1.20;;;1.03;;
15482;SDS011;7843;50.330;7.312;2023-05-07T02:59:45;1.30;;;1.10;;
15482;SDS011;7843;50.330;7.312;2023-05-07T03:02:11;2.10;;;1.45;;
15482;SDS011;7843;50.330;7.312;2023-05-07T03:04:40;2.50;;;0.98;;
15482;SDS011;7843;50.330;7.312;2023-05-07T03:07:07;2.28;;;1.40;;
15482;SDS011;7843;50.330;7.312;2023-05-07T03:09:34;2.10;;;1.27;;
15482;SDS011;7843;50.330;7.312;2023-05-07T03:12:00;1.67;;;1.08;;
15482;SDS011;7843;50.330;7.312;2023-05-07T03:14:27;3.05;;;1.60;;
15482;SDS011;7843;50.330;7.312;2023-05-07T03:16:54;1.98;;;1.10;;
15482;SDS011;7843;50.330;7.312;2023-05-07T03:19:21;1.60;;;1.20;;
15482;SDS011;7843;50.330;7.312;2023-05-07T03:21:47;2.67;;;1.30;;
15482;SDS011;7843;50.330;7.312;2023-05-07T03:24:14;3.63;;;1.10;;
15482;SDS011;7843;50.330;7.312;2023-05-07T03:26:41;3.00;;;1.60;;
15482;SDS011;7843;50.330;7.312;2023-05-07T03:29:07;3.65;;;1.52;;
15482;SDS011;7843;50.330;7.312;2023-05-07T03:31:34;2.10;;;1.20;;
15482;SDS011;7843;50.330;7.312;2023-05-07T03:34:01;1.70;;;1.20;;
15482;SDS011;7843;50.330;7.312;2023-05-07T03:36:27;2.20;;;0.90;;
15482;SDS011;7843;50.330;7.312;2023-05-07T03:38:54;2.22;;;1.25;;
15482;SDS011;7843;50.330;7.312;2023-05-07T03:41:21;2.40;;;1.35;;
15482;SDS011;7843;50.330;7.312;2023-05-07T03:43:47;2.83;;;1.50;;
15482;SDS011;7843;50.330;7.312;2023-05-07T03:46:14;2.30;;;1.30;;
15482;SDS011;7843;50.330;7.312;2023-05-07T03:48:41;1.42;;;1.10;;
15482;SDS011;7843;50.330;7.312;2023-05-07T03:51:07;2.55;;;1.40;;
15482;SDS011;7843;50.330;7.312;2023-05-07T03:53:34;1.53;;;1.17;;
15482;SDS011;7843;50.330;7.312;2023-05-07T03:56:01;2.40;;;1.38;;
15482;SDS011;7843;50.330;7.312;2023-05-07T03:58:27;1.70;;;1.10;;
15482;SDS011;7843;50.330;7.312;2023-05-07T04:00:54;1.52;;;1.33;;
15482;SDS011;7843;50.330;7.312;2023-05-07T04:03:21;1.50;;;1.10;;
15482;SDS011;7843;50.330;7.312;2023-05-07T04:05:48;1.47;;;1.10;;
15482;SDS011;7843;50.330;7.312;2023-05-07T04:08:15;1.88;;;1.15;;
15482;SDS011;7843;50.330;7.312;2023-05-07T04:10:41;2.28;;;1.10;;
15482;SDS011;7843;50.330;7.312;2023-05-07T04:13:08;3.35;;;1.40;;
15482;SDS011;7843;50.330;7.312;2023-05-07T04:15:35;1.75;;;0.95;;
15482;SDS011;7843;50.330;7.312;2023-05-07T04:18:02;1.63;;;1.08;;
15482;SDS011;7843;50.330;7.312;2023-05-07T04:20:29;3.00;;;1.40;;
15482;SDS011;7843;50.330;7.312;2023-05-07T04:22:55;1.20;;;1.10;;
15482;SDS011;7843;50.330;7.312;2023-05-07T04:25:22;2.80;;;1.30;;
15482;SDS011;7843;50.330;7.312;2023-05-07T04:27:52;2.33;;;1.15;;
15482;SDS011;7843;50.330;7.312;2023-05-07T04:30:19;1.10;;;1.00;;
15482;SDS011;7843;50.330;7.312;2023-05-07T04:32:46;2.00;;;1.25;;
15482;SDS011;7843;50.330;7.312;2023-05-07T04:35:14;1.30;;;0.93;;
15482;SDS011;7843;50.330;7.312;2023-05-07T04:37:40;2.50;;;1.10;;
15482;SDS011;7843;50.330;7.312;2023-05-07T04:40:07;1.83;;;0.80;;
15482;SDS011;7843;50.330;7.312;2023-05-07T04:42:34;1.13;;;0.90;;
15482;SDS011;7843;50.330;7.312;2023-05-07T04:45:01;1.30;;;1.20;;
15482;SDS011;7843;50.330;7.312;2023-05-07T04:47:29;2.00;;;0.95;;
15482;SDS011;7843;50.330;7.312;2023-05-07T04:49:56;1.90;;;1.25;;
15482;SDS011;7843;50.330;7.312;2023-05-07T04:52:24;2.42;;;1.55;;
15482;SDS011;7843;50.330;7.312;2023-05-07T04:54:52;3.47;;;1.08;;
15482;SDS011;7843;50.330;7.312;2023-05-07T04:57:19;1.20;;;1.00;;
15482;SDS011;7843;50.330;7.312;2023-05-07T04:59:45;1.83;;;1.23;;
15482;SDS011;7843;50.330;7.312;2023-05-07T05:02:12;2.70;;;1.15;;
15482;SDS011;7843;50.330;7.312;2023-05-07T05:04:39;2.07;;;1.27;;
15482;SDS011;7843;50.330;7.312;2023-05-07T05:07:05;1.60;;;1.40;;
15482;SDS011;7843;50.330;7.312;2023-05-07T05:09:32;1.38;;;1.00;;
15482;SDS011;7843;50.330;7.312;2023-05-07T05:11:59;3.00;;;1.10;;
15482;SDS011;7843;50.330;7.312;2023-05-07T05:14:26;3.72;;;1.30;;
15482;SDS011;7843;50.330;7.312;2023-05-07T05:16:52;1.58;;;1.05;;
15482;SDS011;7843;50.330;7.312;2023-05-07T05:19:19;2.70;;;1.10;;
15482;SDS011;7843;50.330;7.312;2023-05-07T05:21:46;1.50;;;1.10;;
15482;SDS011;7843;50.330;7.312;2023-05-07T05:24:12;1.70;;;1.27;;
15482;SDS011;7843;50.330;7.312;2023-05-07T05:26:39;3.33;;;1.45;;
15482;SDS011;7843;50.330;7.312;2023-05-07T05:29:06;6.88;;;1.35;;
15482;SDS011;7843;50.330;7.312;2023-05-07T05:31:33;5.90;;;1.50;;
15482;SDS011;7843;50.330;7.312;2023-05-07T05:34:02;1.95;;;1.40;;
15482;SDS011;7843;50.330;7.312;2023-05-07T05:36:28;2.17;;;1.20;;
15482;SDS011;7843;50.330;7.312;2023-05-07T05:38:56;2.10;;;1.30;;
15482;SDS011;7843;50.330;7.312;2023-05-07T05:41:23;1.70;;;1.30;;
15482;SDS011;7843;50.330;7.312;2023-05-07T05:43:50;2.42;;;1.70;;
15482;SDS011;7843;50.330;7.312;2023-05-07T05:46:16;2.30;;;1.30;;
15482;SDS011;7843;50.330;7.312;2023-05-07T05:48:43;1.70;;;1.27;;
15482;SDS011;7843;50.330;7.312;2023-05-07T05:51:10;2.23;;;1.47;;
15482;SDS011;7843;50.330;7.312;2023-05-07T05:53:36;2.42;;;1.60;;
15482;SDS011;7843;50.330;7.312;2023-05-07T05:56:03;2.10;;;1.00;;
15482;SDS011;7843;50.330;7.312;2023-05-07T05:58:30;2.88;;;1.80;;
15482;SDS011;7843;50.330;7.312;2023-05-07T06:00:57;2.58;;;2.00;;
15482;SDS011;7843;50.330;7.312;2023-05-07T06:03:24;2.17;;;1.70;;
15482;SDS011;7843;50.330;7.312;2023-05-07T06:05:52;4.63;;;2.42;;
15482;SDS011;7843;50.330;7.312;2023-05-07T06:08:18;2.78;;;1.52;;
15482;SDS011;7843;50.330;7.312;2023-05-07T06:10:45;3.50;;;1.90;;
15482;SDS011;7843;50.330;7.312;2023-05-07T06:13:12;2.42;;;1.98;;
15482;SDS011;7843;50.330;7.312;2023-05-07T06:15:39;2.95;;;1.90;;
15482;SDS011;7843;50.330;7.312;2023-05-07T06:18:06;3.15;;;1.73;;
15482;SDS011;7843;50.330;7.312;2023-05-07T06:20:32;2.03;;;1.50;;
15482;SDS011;7843;50.330;7.312;2023-05-07T06:22:59;2.67;;;1.73;;
15482;SDS011;7843;50.330;7.312;2023-05-07T06:25:26;2.47;;;1.77;;
15482;SDS011;7843;50.330;7.312;2023-05-07T06:27:52;2.15;;;1.80;;
15482;SDS011;7843;50.330;7.312;2023-05-07T06:30:19;2.17;;;1.88;;
15482;SDS011;7843;50.330;7.312;2023-05-07T06:32:46;2.33;;;1.63;;
15482;SDS011;7843;50.330;7.312;2023-05-07T06:35:12;2.55;;;1.70;;
15482;SDS011;7843;50.330;7.312;2023-05-07T06:37:40;3.97;;;1.90;;
15482;SDS011;7843;50.330;7.312;2023-05-07T06:40:08;4.10;;;1.90;;
15482;SDS011;7843;50.330;7.312;2023-05-07T06:42:35;2.25;;;1.80;;
15482;SDS011;7843;50.330;7.312;2023-05-07T06:45:03;2.80;;;1.60;;
15482;SDS011;7843;50.330;7.312;2023-05-07T06:47:30;3.27;;;2.10;;
15482;SDS011;7843;50.330;7.312;2023-05-07T06:49:57;2.53;;;1.70;;
15482;SDS011;7843;50.330;7.312;2023-05-07T06:52:24;3.15;;;1.98;;
15482;SDS011;7843;50.330;7.312;2023-05-07T06:54:50;3.10;;;2.22;;
15482;SDS011;7843;50.330;7.312;2023-05-07T06:57:17;6.47;;;2.50;;
15482;SDS011;7843;50.330;7.312;2023-05-07T06:59:44;4.30;;;2.95;;
15482;SDS011;7843;50.330;7.312;2023-05-07T07:02:10;3.58;;;2.22;;
15482;SDS011;7843;50.330;7.312;2023-05-07T07:04:37;3.10;;;2.30;;
15482;SDS011;7843;50.330;7.312;2023-05-07T07:07:04;2.72;;;2.17;;
15482;SDS011;7843;50.330;7.312;2023-05-07T07:09:31;4.97;;;2.20;;
15482;SDS011;7843;50.330;7.312;2023-05-07T07:11:58;3.65;;;2.20;;
15482;SDS011;7843;50.330;7.312;2023-05-07T07:14:24;4.13;;;2.10;;
15482;SDS011;7843;50.330;7.312;2023-05-07T07:16:51;3.88;;;2.47;;
15482;SDS011;7843;50.330;7.312;2023-05-07T07:19:18;3.08;;;2.00;;
15482;SDS011;7843;50.330;7.312;2023-05-07T07:21:46;3.55;;;2.10;;
15482;SDS011;7843;50.330;7.312;2023-05-07T07:24:14;3.55;;;2.25;;
15482;SDS011;7843;50.330;7.312;2023-05-07T07:26:45;4.32;;;2.47;;
15482;SDS011;7843;50.330;7.312;2023-05-07T07:29:11;3.92;;;2.13;;
15482;SDS011;7843;50.330;7.312;2023-05-07T07:31:38;3.20;;;2.22;;
15482;SDS011;7843;50.330;7.312;2023-05-07T07:34:05;4.18;;;2.13;;
15482;SDS011;7843;50.330;7.312;2023-05-07T07:36:32;4.87;;;2.50;;
15482;SDS011;7843;50.330;7.312;2023-05-07T07:39:04;2.65;;;2.15;;
15482;SDS011;7843;50.330;7.312;2023-05-07T07:41:30;2.50;;;1.90;;
15482;SDS011;7843;50.330;7.312;2023-05-07T07:43:57;3.80;;;2.00;;
15482;SDS011;7843;50.330;7.312;2023-05-07T07:46:24;5.05;;;1.85;;
15482;SDS011;7843;50.330;7.312;2023-05-07T07:48:50;3.75;;;2.03;;
15482;SDS011;7843;50.330;7.312;2023-05-07T07:51:17;4.07;;;2.13;;
15482;SDS011;7843;50.330;7.312;2023-05-07T07:53:43;2.28;;;1.85;;
15482;SDS011;7843;50.330;7.312;2023-05-07T07:56:10;5.30;;;2.40;;
15482;SDS011;7843;50.330;7.312;2023-05-07T07:58:38;4.30;;;2.20;;
15482;SDS011;7843;50.330;7.312;2023-05-07T08:01:05;3.20;;;2.10;;
15482;SDS011;7843;50.330;7.312;2023-05-07T08:03:32;3.65;;;1.88;;
15482;SDS011;7843;50.330;7.312;2023-05-07T08:05:59;3.60;;;2.05;;
15482;SDS011;7843;50.330;7.312;2023-05-07T08:08:26;2.97;;;1.80;;
15482;SDS011;7843;50.330;7.312;2023-05-07T08:10:53;3.08;;;1.70;;
15482;SDS011;7843;50.330;7.312;2023-05-07T08:13:19;2.15;;;1.50;;
15482;SDS011;7843;50.330;7.312;2023-05-07T08:15:46;2.63;;;1.80;;
15482;SDS011;7843;50.330;7.312;2023-05-07T08:18:13;5.22;;;1.85;;
15482;SDS011;7843;50.330;7.312;2023-05-07T08:20:39;4.03;;;1.80;;
15482;SDS011;7843;50.330;7.312;2023-05-07T08:23:07;2.60;;;1.95;;
15482;SDS011;7843;50.330;7.312;2023-05-07T08:25:34;2.72;;;1.98;;
15482;SDS011;7843;50.330;7.312;2023-05-07T08:28:01;2.15;;;1.65;;
15482;SDS011;7843;50.330;7.312;2023-05-07T08:30:29;2.38;;;1.88;;
15482;SDS011;7843;50.330;7.312;2023-05-07T08:32:56;1.63;;;1.45;;
15482;SDS011;7843;50.330;7.312;2023-05-07T08:35:23;4.40;;;1.90;;
15482;SDS011;7843;50.330;7.312;2023-05-07T08:37:50;2.80;;;1.60;;
15482;SDS011;7843;50.330;7.312;2023-05-07T08:40:16;3.42;;;2.08;;
15482;SDS011;7843;50.330;7.312;2023-05-07T08:42:43;1.67;;;1.48;;
15482;SDS011;7843;50.330;7.312;2023-05-07T08:45:10;2.38;;;1.42;;
15482;SDS011;7843;50.330;7.312;2023-05-07T08:47:42;3.13;;;1.80;;
15482;SDS011;7843;50.330;7.312;2023-05-07T08:50:11;2.40;;;1.80;;
15482;SDS011;7843;50.330;7.312;2023-05-07T08:52:41;2.80;;;1.90;;
15482;SDS011;7843;50.330;7.312;2023-05-07T08:55:08;2.40;;;1.85;;
15482;SDS011;7843;50.330;7.312;2023-05-07T08:57:36;3.40;;;2.13;;
15482;SDS011;7843;50.330;7.312;2023-05-07T09:00:05;2.22;;;1.60;;
15482;SDS011;7843;50.330;7.312;2023-05-07T09:02:34;4.00;;;1.92;;
15482;SDS011;7843;50.330;7.312;2023-05-07T09:05:02;3.40;;;1.70;;
15482;SDS011;7843;50.330;7.312;2023-05-07T09:07:30;1.93;;;1.73;;
15482;SDS011;7843;50.330;7.312;2023-05-07T09:09:57;3.40;;;1.67;;
15482;SDS011;7843;50.330;7.312;2023-05-07T09:12:23;2.47;;;1.77;;
15482;SDS011;7843;50.330;7.312;2023-05-07T09:14:50;4.87;;;1.87;;
15482;SDS011;7843;50.330;7.312;2023-05-07T09:17:17;2.92;;;1.70;;
15482;SDS011;7843;50.330;7.312;2023-05-07T09:19:44;3.85;;;1.80;;
15482;SDS011;7843;50.330;7.312;2023-05-07T09:22:14;3.47;;;2.05;;
15482;SDS011;7843;50.330;7.312;2023-05-07T09:24:40;3.67;;;1.58;;
15482;SDS011;7843;50.330;7.312;2023-05-07T09:27:13;2.97;;;1.80;;
15482;SDS011;7843;50.330;7.312;2023-05-07T09:29:39;2.70;;;1.63;;
15482;SDS011;7843;50.330;7.312;2023-05-07T09:32:07;5.93;;;1.98;;
15482;SDS011;7843;50.330;7.312;2023-05-07T09:34:34;3.17;;;1.80;;
15482;SDS011;7843;50.330;7.312;2023-05-07T09:37:03;1.90;;;1.70;;
15482;SDS011;7843;50.330;7.312;2023-05-07T09:39:44;2.15;;;1.55;;
15482;SDS011;7843;50.330;7.312;2023-05-07T09:42:12;1.60;;;1.17;;
15482;SDS011;7843;50.330;7.312;2023-05-07T09:44:41;2.67;;;1.50;;
15482;SDS011;7843;50.330;7.312;2023-05-07T09:47:10;1.40;;;1.10;;
15482;SDS011;7843;50.330;7.312;2023-05-07T09:49:39;2.25;;;1.08;;
15482;SDS011;7843;50.330;7.312;2023-05-07T09:52:08;1.20;;;0.90;;
15482;SDS011;7843;50.330;7.312;2023-05-07T09:54:36;1.85;;;1.17;;
15482;SDS011;7843;50.330;7.312;2023-05-07T09:57:06;2.55;;;1.02;;
15482;SDS011;7843;50.330;7.312;2023-05-07T09:59:37;3.38;;;1.00;;
15482;SDS011;7843;50.330;7.312;2023-05-07T10:02:04;2.35;;;1.13;;
15482;SDS011;7843;50.330;7.312;2023-05-07T10:04:32;1.55;;;1.10;;
15482;SDS011;7843;50.330;7.312;2023-05-07T10:06:59;1.42;;;1.10;;
15482;SDS011;7843;50.330;7.312;2023-05-07T10:09:27;1.30;;;1.00;;
15482;SDS011;7843;50.330;7.312;2023-05-07T10:11:54;1.60;;;1.00;;
15482;SDS011;7843;50.330;7.312;2023-05-07T10:14:22;2.03;;;1.08;;
15482;SDS011;7843;50.330;7.312;2023-05-07T10:16:50;2.42;;;1.20;;
15482;SDS011;7843;50.330;7.312;2023-05-07T10:19:19;1.15;;;0.77;;
15482;SDS011;7843;50.330;7.312;2023-05-07T10:21:51;0.88;;;0.77;;
15482;SDS011;7843;50.330;7.312;2023-05-07T10:24:26;0.73;;;0.70;;
15482;SDS011;7843;50.330;7.312;2023-05-07T10:26:56;0.80;;;0.50;;
15482;SDS011;7843;50.330;7.312;2023-05-07T10:34:39;3.97;;;0.98;;
15482;SDS011;7843;50.330;7.312;2023-05-07T10:37:09;0.90;;;0.60;;
15482;SDS011;7843;50.330;7.312;2023-05-07T10:39:37;1.35;;;0.70;;
15482;SDS011;7843;50.330;7.312;2023-05-07T10:42:10;1.27;;;0.47;;
15482;SDS011;7843;50.330;7.312;2023-05-07T10:44:38;1.60;;;0.90;;
15482;SDS011;7843;50.330;7.312;2023-05-07T10:49:36;1.02;;;0.75;;
15482;SDS011;7843;50.330;7.312;2023-05-07T10:54:40;0.60;;;0.43;;
15482;SDS011;7843;50.330;7.312;2023-05-07T11:00:03;1.30;;;0.90;;
15482;SDS011;7843;50.330;7.312;2023-05-07T11:05:30;0.52;;;0.50;;
15482;SDS011;7843;50.330;7.312;2023-05-07T11:07:59;1.80;;;0.50;;
15482;SDS011;7843;50.330;7.312;2023-05-07T11:13:40;2.00;;;0.60;;
15482;SDS011;7843;50.330;7.312;2023-05-07T11:16:21;1.60;;;0.63;;
15482;SDS011;7843;50.330;7.312;2023-05-07T11:18:50;0.70;;;0.52;;
15482;SDS011;7843;50.330;7.312;2023-05-07T11:21:33;1.55;;;0.52;;
15482;SDS011;7843;50.330;7.312;2023-05-07T11:24:01;3.60;;;0.50;;
15482;SDS011;7843;50.330;7.312;2023-05-07T11:26:30;2.27;;;0.80;;
15482;SDS011;7843;50.330;7.312;2023-05-07T11:29:11;1.50;;;0.60;;
15482;SDS011;7843;50.330;7.312;2023-05-07T11:31:38;1.00;;;0.63;;
15482;SDS011;7843;50.330;7.312;2023-05-07T11:34:06;0.82;;;0.60;;
15482;SDS011;7843;50.330;7.312;2023-05-07T11:36:33;0.80;;;0.60;;
15482;SDS011;7843;50.330;7.312;2023-05-07T11:39:00;1.00;;;0.60;;
15482;SDS011;7843;50.330;7.312;2023-05-07T11:41:34;1.08;;;0.60;;
15482;SDS011;7843;50.330;7.312;2023-05-07T11:44:02;1.00;;;0.60;;
15482;SDS011;7843;50.330;7.312;2023-05-07T11:46:29;1.73;;;0.63;;
15482;SDS011;7843;50.330;7.312;2023-05-07T11:48:56;1.33;;;0.80;;
15482;SDS011;7843;50.330;7.312;2023-05-07T11:51:23;3.10;;;0.52;;
15482;SDS011;7843;50.330;7.312;2023-05-07T11:53:52;1.95;;;0.80;;
15482;SDS011;7843;50.330;7.312;2023-05-07T11:56:19;4.00;;;0.55;;
15482;SDS011;7843;50.330;7.312;2023-05-07T11:58:47;2.80;;;0.50;;
15482;SDS011;7843;50.330;7.312;2023-05-07T12:01:15;1.15;;;0.63;;
15482;SDS011;7843;50.330;7.312;2023-05-07T12:03:43;1.23;;;0.52;;
15482;SDS011;7843;50.330;7.312;2023-05-07T12:06:12;1.00;;;0.50;;
15482;SDS011;7843;50.330;7.312;2023-05-07T12:08:41;0.82;;;0.57;;
15482;SDS011;7843;50.330;7.312;2023-05-07T12:11:14;1.10;;;0.60;;
15482;SDS011;7843;50.330;7.312;2023-05-07T12:13:44;1.48;;;0.40;;
15482;SDS011;7843;50.330;7.312;2023-05-07T12:16:10;0.70;;;0.45;;
15482;SDS011;7843;50.330;7.312;2023-05-07T12:18:38;1.27;;;0.30;;
15482;SDS011;7843;50.330;7.312;2023-05-07T12:21:06;0.30;;;0.30;;
15482;SDS011;7843;50.330;7.312;2023-05-07T12:23:34;0.85;;;0.30;;
15482;SDS011;7843;50.330;7.312;2023-05-07T12:26:02;0.30;;;0.30;;
15482;SDS011;7843;50.330;7.312;2023-05-07T12:28:35;0.73;;;0.33;;
15482;SDS011;7843;50.330;7.312;2023-05-07T12:31:03;3.90;;;0.40;;
15482;SDS011;7843;50.330;7.312;2023-05-07T12:33:31;0.75;;;0.45;;
15482;SDS011;7843;50.330;7.312;2023-05-07T12:36:00;0.88;;;0.43;;
15482;SDS011;7843;50.330;7.312;2023-05-07T12:38:33;0.55;;;0.32;;
15482;SDS011;7843;50.330;7.312;2023-05-07T12:41:02;1.40;;;0.35;;
15482;SDS011;7843;50.330;7.312;2023-05-07T12:43:29;0.55;;;0.32;;
15482;SDS011;7843;50.330;7.312;2023-05-07T12:45:57;0.55;;;0.30;;
15482;SDS011;7843;50.330;7.312;2023-05-07T12:48:26;1.50;;;0.50;;
15482;SDS011;7843;50.330;7.312;2023-05-07T12:50:54;0.90;;;0.40;;
15482;SDS011;7843;50.330;7.312;2023-05-07T12:53:22;1.90;;;0.45;;
15482;SDS011;7843;50.330;7.312;2023-05-07T12:55:51;0.97;;;0.50;;
15482;SDS011;7843;50.330;7.312;2023-05-07T13:00:48;2.72;;;0.63;;
15482;SDS011;7843;50.330;7.312;2023-05-07T13:03:29;0.45;;;0.32;;
15482;SDS011;7843;50.330;7.312;2023-05-07T13:06:01;1.13;;;0.40;;
15482;SDS011;7843;50.330;7.312;2023-05-07T13:08:34;0.93;;;0.35;;
15482;SDS011;7843;50.330;7.312;2023-05-07T13:11:04;0.57;;;0.40;;
15482;SDS011;7843;50.330;7.312;2023-05-07T13:13:31;1.23;;;0.60;;
15482;SDS011;7843;50.330;7.312;2023-05-07T13:15:59;1.30;;;0.80;;
15482;SDS011;7843;50.330;7.312;2023-05-07T13:18:26;1.17;;;0.63;;
15482;SDS011;7843;50.330;7.312;2023-05-07T13:20:53;1.15;;;0.55;;
15482;SDS011;7843;50.330;7.312;2023-05-07T13:23:20;1.90;;;0.50;;
15482;SDS011;7843;50.330;7.312;2023-05-07T13:25:47;1.30;;;0.53;;
15482;SDS011;7843;50.330;7.312;2023-05-07T13:28:14;0.80;;;0.50;;
15482;SDS011;7843;50.330;7.312;2023-05-07T13:30:41;0.50;;;0.40;;
15482;SDS011;7843;50.330;7.312;2023-05-07T13:33:08;2.90;;;0.70;;
15482;SDS011;7843;50.330;7.312;2023-05-07T13:35:35;1.70;;;0.50;;
15482;SDS011;7843;50.330;7.312;2023-05-07T13:38:02;0.65;;;0.45;;
15482;SDS011;7843;50.330;7.312;2023-05-07T13:40:29;1.65;;;0.60;;
15482;SDS011;7843;50.330;7.312;2023-05-07T13:42:59;0.47;;;0.40;;
15482;SDS011;7843;50.330;7.312;2023-05-07T13:45:29;0.93;;;0.75;;
15482;SDS011;7843;50.330;7.312;2023-05-07T13:47:56;0.90;;;0.70;;
15482;SDS011;7843;50.330;7.312;2023-05-07T13:50:23;2.10;;;0.63;;
15482;SDS011;7843;50.330;7.312;2023-05-07T13:52:52;0.90;;;0.68;;
15482;SDS011;7843;50.330;7.312;2023-05-07T13:55:20;0.85;;;0.85;;
15482;SDS011;7843;50.330;7.312;2023-05-07T13:57:47;1.40;;;0.95;;
15482;SDS011;7843;50.330;7.312;2023-05-07T14:00:21;1.37;;;0.80;;
15482;SDS011;7843;50.330;7.312;2023-05-07T14:02:47;1.20;;;0.98;;
15482;SDS011;7843;50.330;7.312;2023-05-07T14:05:14;0.90;;;0.77;;
15482;SDS011;7843;50.330;7.312;2023-05-07T14:07:41;2.20;;;0.70;;
15482;SDS011;7843;50.330;7.312;2023-05-07T14:10:07;1.30;;;0.90;;
15482;SDS011;7843;50.330;7.312;2023-05-07T14:12:35;1.30;;;0.70;;
15482;SDS011;7843;50.330;7.312;2023-05-07T14:15:02;1.60;;;0.60;;
15482;SDS011;7843;50.330;7.312;2023-05-07T14:17:29;1.40;;;0.75;;
15482;SDS011;7843;50.330;7.312;2023-05-07T14:19:56;1.10;;;0.60;;
15482;SDS011;7843;50.330;7.312;2023-05-07T14:22:23;1.73;;;0.63;;
15482;SDS011;7843;50.330;7.312;2023-05-07T14:24:50;1.20;;;0.88;;
15482;SDS011;7843;50.330;7.312;2023-05-07T14:27:21;2.85;;;0.90;;
15482;SDS011;7843;50.330;7.312;2023-05-07T14:29:48;1.30;;;0.80;;
15482;SDS011;7843;50.330;7.312;2023-05-07T14:32:17;1.20;;;0.70;;
15482;SDS011;7843;50.330;7.312;2023-05-07T14:34:44;1.10;;;0.73;;
15482;SDS011;7843;50.330;7.312;2023-05-07T14:37:12;2.50;;;0.90;;
15482;SDS011;7843;50.330;7.312;2023-05-07T14:39:38;1.13;;;1.02;;
15482;SDS011;7843;50.330;7.312;2023-05-07T14:42:05;1.30;;;1.15;;
15482;SDS011;7843;50.330;7.312;2023-05-07T14:44:34;1.52;;;1.00;;
15482;SDS011;7843;50.330;7.312;2023-05-07T14:47:01;1.65;;;1.10;;
15482;SDS011;7843;50.330;7.312;2023-05-07T14:49:28;3.20;;;1.00;;
15482;SDS011;7843;50.330;7.312;2023-05-07T14:51:56;1.27;;;0.93;;
15482;SDS011;7843;50.330;7.312;2023-05-07T14:54:25;1.35;;;1.00;;
15482;SDS011;7843;50.330;7.312;2023-05-07T14:56:52;1.98;;;0.90;;
15482;SDS011;7843;50.330;7.312;2023-05-07T14:59:19;1.38;;;0.88;;
15482;SDS011;7843;50.330;7.312;2023-05-07T15:01:47;1.33;;;0.80;;
15482;SDS011;7843;50.330;7.312;2023-05-07T15:04:14;2.58;;;1.10;;
15482;SDS011;7843;50.330;7.312;2023-05-07T15:06:40;3.60;;;1.27;;
15482;SDS011;7843;50.330;7.312;2023-05-07T15:09:07;4.68;;;1.50;;
15482;SDS011;7843;50.330;7.312;2023-05-07T15:11:35;3.03;;;1.00;;
15482;SDS011;7843;50.330;7.312;2023-05-07T15:14:01;2.08;;;1.13;;
15482;SDS011;7843;50.330;7.312;2023-05-07T15:16:28;1.90;;;1.23;;
15482;SDS011;7843;50.330;7.312;2023-05-07T15:18:55;1.45;;;1.20;;
15482;SDS011;7843;50.330;7.312;2023-05-07T15:21:21;2.63;;;1.50;;
15482;SDS011;7843;50.330;7.312;2023-05-07T15:23:48;3.45;;;1.70;;